sensor_id;sensor_type;location;lat;lon;timestamp;temperature;humidity
23713;DHT22;12035;49.978;8.298;2023-02-04T00:00:47;11.90;69.40
23713;DHT22;12035;49.978;8.298;2023-02-04T00:05:44;11.90;68.90
23713;DHT22;12035;49.978;8.298;2023-02-04T00:10:41;11.90;68.50
23713;DHT22;12035;49.978;8.298;2023-02-04T00:15:38;11.90;68.30
23713;DHT22;12035;49.978;8.298;2023-02-04T00:20:36;11.90;67.80
23713;DHT22;12035;49.978;8.298;2023-02-04T00:25:33;11.80;67.30
23713;DHT22;12035;49.978;8.298;2023-02-04T00:30:31;11.80;67.10
23713;DHT22;12035;49.978;8.298;2023-02-04T00:35:28;11.80;66.80
23713;DHT22;12035;49.978;8.298;2023-02-04T00:40:27;11.80;66.80
23713;DHT22;12035;49.978;8.298;2023-02-04T00:45:24;11.80;66.30
23713;DHT22;12035;49.978;8.298;2023-02-04T00:50:21;11.80;66.30
23713;DHT22;12035;49.978;8.298;2023-02-04T00:55:18;11.70;66.10
23713;DHT22;12035;49.978;8.298;2023-02-04T01:00:17;11.80;66.20
23713;DHT22;12035;49.978;8.298;2023-02-04T01:05:15;11.70;65.70
23713;DHT22;12035;49.978;8.298;2023-02-04T01:10:12;11.70;65.80
23713;DHT22;12035;49.978;8.298;2023-02-04T01:15:10;11.70;65.70
23713;DHT22;12035;49.978;8.298;2023-02-04T01:20:10;11.70;65.70
23713;DHT22;12035;49.978;8.298;2023-02-04T01:25:07;11.70;65.30
23713;DHT22;12035;49.978;8.298;2023-02-04T01:30:05;11.60;65.50
23713;DHT22;12035;49.978;8.298;2023-02-04T01:35:04;11.60;65.50
23713;DHT22;12035;49.978;8.298;2023-02-04T01:40:03;11.60;65.50
23713;DHT22;12035;49.978;8.298;2023-02-04T01:45:01;11.60;65.20
23713;DHT22;12035;49.978;8.298;2023-02-04T01:50:00;11.50;65.20
23713;DHT22;12035;49.978;8.298;2023-02-04T01:54:58;11.60;65.30
23713;DHT22;12035;49.978;8.298;2023-02-04T01:59:56;11.50;65.30
23713;DHT22;12035;49.978;8.298;2023-02-04T02:04:54;11.50;66.00
23713;DHT22;12035;49.978;8.298;2023-02-04T02:09:50;11.50;65.20
23713;DHT22;12035;49.978;8.298;2023-02-04T02:14:48;11.50;66.00
23713;DHT22;12035;49.978;8.298;2023-02-04T02:19:46;11.40;65.60
23713;DHT22;12035;49.978;8.298;2023-02-04T02:24:45;11.40;65.70
23713;DHT22;12035;49.978;8.298;2023-02-04T02:29:42;11.40;65.50
23713;DHT22;12035;49.978;8.298;2023-02-04T02:34:41;11.50;65.40
23713;DHT22;12035;49.978;8.298;2023-02-04T02:39:40;11.40;65.30
23713;DHT22;12035;49.978;8.298;2023-02-04T02:44:41;11.40;65.20
23713;DHT22;12035;49.978;8.298;2023-02-04T02:49:40;11.40;65.10
23713;DHT22;12035;49.978;8.298;2023-02-04T02:54:38;11.40;65.00
23713;DHT22;12035;49.978;8.298;2023-02-04T02:59:36;11.40;65.00
23713;DHT22;12035;49.978;8.298;2023-02-04T03:04:37;11.40;64.80
23713;DHT22;12035;49.978;8.298;2023-02-04T03:09:36;11.30;64.50
23713;DHT22;12035;49.978;8.298;2023-02-04T03:14:34;11.30;64.30
23713;DHT22;12035;49.978;8.298;2023-02-04T03:19:32;11.30;64.20
23713;DHT22;12035;49.978;8.298;2023-02-04T03:24:31;11.30;64.30
23713;DHT22;12035;49.978;8.298;2023-02-04T03:29:29;11.30;64.20
23713;DHT22;12035;49.978;8.298;2023-02-04T03:34:26;11.20;64.00
23713;DHT22;12035;49.978;8.298;2023-02-04T03:39:25;11.20;64.20
23713;DHT22;12035;49.978;8.298;2023-02-04T03:44:22;11.20;64.10
23713;DHT22;12035;49.978;8.298;2023-02-04T03:49:21;11.20;64.30
23713;DHT22;12035;49.978;8.298;2023-02-04T03:54:19;11.20;64.30
23713;DHT22;12035;49.978;8.298;2023-02-04T03:59:17;11.20;64.40
23713;DHT22;12035;49.978;8.298;2023-02-04T04:04:14;11.20;64.40
23713;DHT22;12035;49.978;8.298;2023-02-04T04:09:12;11.20;64.60
23713;DHT22;12035;49.978;8.298;2023-02-04T04:14:09;11.20;64.70
23713;DHT22;12035;49.978;8.298;2023-02-04T04:19:07;11.20;64.70
23713;DHT22;12035;49.978;8.298;2023-02-04T04:24:05;11.20;64.80
23713;DHT22;12035;49.978;8.298;2023-02-04T04:29:02;11.20;64.90
23713;DHT22;12035;49.978;8.298;2023-02-04T04:34:00;11.20;64.90
23713;DHT22;12035;49.978;8.298;2023-02-04T04:38:59;11.20;65.00
23713;DHT22;12035;49.978;8.298;2023-02-04T04:43:56;11.10;64.90
23713;DHT22;12035;49.978;8.298;2023-02-04T04:48:53;11.10;65.00
23713;DHT22;12035;49.978;8.298;2023-02-04T04:53:50;11.10;65.60
23713;DHT22;12035;49.978;8.298;2023-02-04T04:58:49;11.10;65.00
23713;DHT22;12035;49.978;8.298;2023-02-04T05:03:46;11.10;65.00
23713;DHT22;12035;49.978;8.298;2023-02-04T05:08:43;11.00;65.10
23713;DHT22;12035;49.978;8.298;2023-02-04T05:13:40;11.00;65.10
23713;DHT22;12035;49.978;8.298;2023-02-04T05:18:39;11.00;65.20
23713;DHT22;12035;49.978;8.298;2023-02-04T05:23:37;10.90;65.10
23713;DHT22;12035;49.978;8.298;2023-02-04T05:28:34;10.90;65.20
23713;DHT22;12035;49.978;8.298;2023-02-04T05:33:30;10.90;65.30
23713;DHT22;12035;49.978;8.298;2023-02-04T05:38:29;10.90;65.70
23713;DHT22;12035;49.978;8.298;2023-02-04T05:43:26;10.90;65.40
23713;DHT22;12035;49.978;8.298;2023-02-04T05:48:23;10.90;65.50
23713;DHT22;12035;49.978;8.298;2023-02-04T05:53:21;10.80;65.40
23713;DHT22;12035;49.978;8.298;2023-02-04T05:58:20;10.80;65.40
23713;DHT22;12035;49.978;8.298;2023-02-04T06:03:17;10.80;65.10
23713;DHT22;12035;49.978;8.298;2023-02-04T06:08:16;10.80;64.90
23713;DHT22;12035;49.978;8.298;2023-02-04T06:13:13;10.70;65.00
23713;DHT22;12035;49.978;8.298;2023-02-04T06:18:12;10.70;65.10
23713;DHT22;12035;49.978;8.298;2023-02-04T06:23:09;10.70;65.20
23713;DHT22;12035;49.978;8.298;2023-02-04T06:28:06;10.70;65.40
23713;DHT22;12035;49.978;8.298;2023-02-04T06:33:03;10.70;65.60
23713;DHT22;12035;49.978;8.298;2023-02-04T06:38:02;10.70;65.70
23713;DHT22;12035;49.978;8.298;2023-02-04T06:42:59;10.70;66.00
23713;DHT22;12035;49.978;8.298;2023-02-04T06:47:56;10.70;65.90
23713;DHT22;12035;49.978;8.298;2023-02-04T06:52:53;10.80;65.90
23713;DHT22;12035;49.978;8.298;2023-02-04T06:57:52;10.80;66.10
23713;DHT22;12035;49.978;8.298;2023-02-04T07:02:49;10.80;65.70
23713;DHT22;12035;49.978;8.298;2023-02-04T07:07:46;10.80;65.70
23713;DHT22;12035;49.978;8.298;2023-02-04T07:12:43;10.80;65.80
23713;DHT22;12035;49.978;8.298;2023-02-04T07:17:42;10.80;66.00
23713;DHT22;12035;49.978;8.298;2023-02-04T07:22:39;10.90;66.00
23713;DHT22;12035;49.978;8.298;2023-02-04T07:27:37;10.90;66.10
23713;DHT22;12035;49.978;8.298;2023-02-04T07:32:34;10.90;66.20
23713;DHT22;12035;49.978;8.298;2023-02-04T07:37:32;11.00;66.10
23713;DHT22;12035;49.978;8.298;2023-02-04T07:42:29;11.00;66.00
23713;DHT22;12035;49.978;8.298;2023-02-04T07:47:26;11.00;65.90
23713;DHT22;12035;49.978;8.298;2023-02-04T07:52:24;11.10;66.00
23713;DHT22;12035;49.978;8.298;2023-02-04T07:57:22;11.10;66.00
23713;DHT22;12035;49.978;8.298;2023-02-04T08:02:20;11.10;65.80
23713;DHT22;12035;49.978;8.298;2023-02-04T08:07:17;11.10;65.70
23713;DHT22;12035;49.978;8.298;2023-02-04T08:12:14;11.20;65.80
23713;DHT22;12035;49.978;8.298;2023-02-04T08:17:12;11.20;65.80
23713;DHT22;12035;49.978;8.298;2023-02-04T08:22:10;11.20;65.60
23713;DHT22;12035;49.978;8.298;2023-02-04T08:27:07;11.20;65.60
23713;DHT22;12035;49.978;8.298;2023-02-04T08:32:05;11.20;65.70
23713;DHT22;12035;49.978;8.298;2023-02-04T08:37:03;11.20;65.70
23713;DHT22;12035;49.978;8.298;2023-02-04T08:42:00;11.30;65.80
23713;DHT22;12035;49.978;8.298;2023-02-04T08:46:57;11.30;66.00
23713;DHT22;12035;49.978;8.298;2023-02-04T08:51:54;11.40;66.30
23713;DHT22;12035;49.978;8.298;2023-02-04T08:56:53;11.40;66.30
23713;DHT22;12035;49.978;8.298;2023-02-04T09:01:50;11.60;66.20
23713;DHT22;12035;49.978;8.298;2023-02-04T09:06:48;11.70;66.00
23713;DHT22;12035;49.978;8.298;2023-02-04T09:11:46;11.80;65.90
23713;DHT22;12035;49.978;8.298;2023-02-04T09:16:44;11.90;65.80
23713;DHT22;12035;49.978;8.298;2023-02-04T09:21:43;11.90;65.40
23713;DHT22;12035;49.978;8.298;2023-02-04T09:26:40;12.00;65.30
23713;DHT22;12035;49.978;8.298;2023-02-04T09:31:37;12.00;65.20
23713;DHT22;12035;49.978;8.298;2023-02-04T09:36:35;12.10;65.50
23713;DHT22;12035;49.978;8.298;2023-02-04T09:41:34;12.10;65.20
23713;DHT22;12035;49.978;8.298;2023-02-04T09:46:32;12.20;64.90
23713;DHT22;12035;49.978;8.298;2023-02-04T09:51:32;12.20;64.30
23713;DHT22;12035;49.978;8.298;2023-02-04T09:56:31;12.20;64.10
23713;DHT22;12035;49.978;8.298;2023-02-04T10:01:29;12.20;64.40
23713;DHT22;12035;49.978;8.298;2023-02-04T10:06:26;12.30;64.60
23713;DHT22;12035;49.978;8.298;2023-02-04T10:11:24;12.30;64.30
23713;DHT22;12035;49.978;8.298;2023-02-04T10:16:24;12.40;64.70
23713;DHT22;12035;49.978;8.298;2023-02-04T10:21:26;12.50;63.80
23713;DHT22;12035;49.978;8.298;2023-02-04T10:26:28;12.60;63.60
23713;DHT22;12035;49.978;8.298;2023-02-04T10:31:29;12.60;63.20
23713;DHT22;12035;49.978;8.298;2023-02-04T10:36:28;12.60;63.40
23713;DHT22;12035;49.978;8.298;2023-02-04T10:41:27;12.60;63.10
23713;DHT22;12035;49.978;8.298;2023-02-04T10:46:24;12.60;62.60
23713;DHT22;12035;49.978;8.298;2023-02-04T10:51:26;12.60;62.80
23713;DHT22;12035;49.978;8.298;2023-02-04T10:56:23;12.60;61.20
23713;DHT22;12035;49.978;8.298;2023-02-04T11:01:21;12.40;60.10
23713;DHT22;12035;49.978;8.298;2023-02-04T11:06:21;12.20;60.30
23713;DHT22;12035;49.978;8.298;2023-02-04T11:11:22;12.00;60.70
23713;DHT22;12035;49.978;8.298;2023-02-04T11:16:26;11.80;60.80
23713;DHT22;12035;49.978;8.298;2023-02-04T11:21:27;11.80;61.60
23713;DHT22;12035;49.978;8.298;2023-02-04T11:26:32;11.60;61.50
23713;DHT22;12035;49.978;8.298;2023-02-04T11:31:55;11.60;61.50
23713;DHT22;12035;49.978;8.298;2023-02-04T11:42:17;11.40;61.30
23713;DHT22;12035;49.978;8.298;2023-02-04T11:47:17;11.40;61.70
23713;DHT22;12035;49.978;8.298;2023-02-04T11:52:15;11.40;61.90
23713;DHT22;12035;49.978;8.298;2023-02-04T11:57:12;11.40;62.20
23713;DHT22;12035;49.978;8.298;2023-02-04T12:02:13;11.50;62.60
23713;DHT22;12035;49.978;8.298;2023-02-04T12:07:20;11.70;63.00
23713;DHT22;12035;49.978;8.298;2023-02-04T12:12:26;11.80;62.20
23713;DHT22;12035;49.978;8.298;2023-02-04T12:17:24;12.00;61.30
23713;DHT22;12035;49.978;8.298;2023-02-04T12:22:22;12.00;60.60
23713;DHT22;12035;49.978;8.298;2023-02-04T12:27:19;12.00;60.00
23713;DHT22;12035;49.978;8.298;2023-02-04T12:32:17;12.00;60.30
23713;DHT22;12035;49.978;8.298;2023-02-04T12:37:14;12.00;60.60
23713;DHT22;12035;49.978;8.298;2023-02-04T12:42:13;12.20;60.50
23713;DHT22;12035;49.978;8.298;2023-02-04T12:47:10;12.30;61.50
23713;DHT22;12035;49.978;8.298;2023-02-04T12:52:07;12.40;60.20
23713;DHT22;12035;49.978;8.298;2023-02-04T12:57:03;12.60;60.00
23713;DHT22;12035;49.978;8.298;2023-02-04T13:02:02;12.70;60.90
23713;DHT22;12035;49.978;8.298;2023-02-04T13:06:59;12.90;59.70
23713;DHT22;12035;49.978;8.298;2023-02-04T13:11:56;13.00;59.40
23713;DHT22;12035;49.978;8.298;2023-02-04T13:16:53;13.10;58.80
23713;DHT22;12035;49.978;8.298;2023-02-04T13:21:52;13.10;57.90
23713;DHT22;12035;49.978;8.298;2023-02-04T13:26:49;13.10;57.90
23713;DHT22;12035;49.978;8.298;2023-02-04T13:31:46;13.10;58.00
23713;DHT22;12035;49.978;8.298;2023-02-04T13:36:43;13.10;58.50
23713;DHT22;12035;49.978;8.298;2023-02-04T13:41:42;13.10;58.00
23713;DHT22;12035;49.978;8.298;2023-02-04T13:46:39;13.10;58.00
23713;DHT22;12035;49.978;8.298;2023-02-04T13:51:36;13.10;58.10
23713;DHT22;12035;49.978;8.298;2023-02-04T13:56:33;13.20;57.90
23713;DHT22;12035;49.978;8.298;2023-02-04T14:01:33;13.20;58.00
23713;DHT22;12035;49.978;8.298;2023-02-04T14:06:30;13.20;58.10
23713;DHT22;12035;49.978;8.298;2023-02-04T14:11:29;13.30;57.70
23713;DHT22;12035;49.978;8.298;2023-02-04T14:16:26;13.20;57.50
23713;DHT22;12035;49.978;8.298;2023-02-04T14:21:25;13.20;57.60
23713;DHT22;12035;49.978;8.298;2023-02-04T14:26:22;13.20;57.30
23713;DHT22;12035;49.978;8.298;2023-02-04T14:31:19;13.10;57.40
23713;DHT22;12035;49.978;8.298;2023-02-04T14:36:16;13.10;57.70
23713;DHT22;12035;49.978;8.298;2023-02-04T14:41:15;13.20;57.60
23713;DHT22;12035;49.978;8.298;2023-02-04T14:46:14;13.20;57.40
23713;DHT22;12035;49.978;8.298;2023-02-04T14:51:11;13.10;57.30
23713;DHT22;12035;49.978;8.298;2023-02-04T14:56:08;13.10;57.40
23713;DHT22;12035;49.978;8.298;2023-02-04T15:01:07;13.10;57.30
23713;DHT22;12035;49.978;8.298;2023-02-04T15:06:04;13.00;56.90
23713;DHT22;12035;49.978;8.298;2023-02-04T15:11:02;13.00;56.60
23713;DHT22;12035;49.978;8.298;2023-02-04T15:16:02;12.80;56.60
23713;DHT22;12035;49.978;8.298;2023-02-04T15:21:01;12.70;56.80
23713;DHT22;12035;49.978;8.298;2023-02-04T15:25:58;12.60;56.90
23713;DHT22;12035;49.978;8.298;2023-02-04T15:30:56;12.60;57.00
23713;DHT22;12035;49.978;8.298;2023-02-04T15:35:54;12.50;57.20
23713;DHT22;12035;49.978;8.298;2023-02-04T15:40:52;12.40;57.30
23713;DHT22;12035;49.978;8.298;2023-02-04T15:45:49;12.40;57.80
23713;DHT22;12035;49.978;8.298;2023-02-04T15:50:46;12.40;57.30
23713;DHT22;12035;49.978;8.298;2023-02-04T15:55:43;12.30;57.30
23713;DHT22;12035;49.978;8.298;2023-02-04T16:00:42;12.30;57.50
23713;DHT22;12035;49.978;8.298;2023-02-04T16:05:39;12.30;57.60
23713;DHT22;12035;49.978;8.298;2023-02-04T16:10:36;12.30;57.70
23713;DHT22;12035;49.978;8.298;2023-02-04T16:15:33;12.30;58.10
23713;DHT22;12035;49.978;8.298;2023-02-04T16:20:31;12.30;57.50
23713;DHT22;12035;49.978;8.298;2023-02-04T16:25:29;12.30;57.50
23713;DHT22;12035;49.978;8.298;2023-02-04T16:30:26;12.30;57.50
23713;DHT22;12035;49.978;8.298;2023-02-04T16:35:23;12.20;57.50
23713;DHT22;12035;49.978;8.298;2023-02-04T16:40:23;12.20;57.70
23713;DHT22;12035;49.978;8.298;2023-02-04T16:45:20;12.20;57.70
23713;DHT22;12035;49.978;8.298;2023-02-04T16:50:17;12.20;57.60
23713;DHT22;12035;49.978;8.298;2023-02-04T16:55:16;12.10;57.50
23713;DHT22;12035;49.978;8.298;2023-02-04T17:00:16;12.10;57.60
23713;DHT22;12035;49.978;8.298;2023-02-04T17:05:13;12.10;57.60
23713;DHT22;12035;49.978;8.298;2023-02-04T17:10:10;12.00;57.60
23713;DHT22;12035;49.978;8.298;2023-02-04T17:15:07;11.90;57.50
23713;DHT22;12035;49.978;8.298;2023-02-04T17:20:10;11.90;57.90
23713;DHT22;12035;49.978;8.298;2023-02-04T17:25:07;11.80;57.50
23713;DHT22;12035;49.978;8.298;2023-02-04T17:30:05;11.70;57.60
23713;DHT22;12035;49.978;8.298;2023-02-04T17:35:03;11.70;57.80
23713;DHT22;12035;49.978;8.298;2023-02-04T17:40:03;11.70;57.80
23713;DHT22;12035;49.978;8.298;2023-02-04T17:45:01;11.70;57.90
23713;DHT22;12035;49.978;8.298;2023-02-04T17:49:58;11.80;57.90
23713;DHT22;12035;49.978;8.298;2023-02-04T17:54:58;11.70;57.50
23713;DHT22;12035;49.978;8.298;2023-02-04T17:59:56;11.70;57.40
23713;DHT22;12035;49.978;8.298;2023-02-04T18:04:57;11.60;57.40
23713;DHT22;12035;49.978;8.298;2023-02-04T18:10:03;11.60;57.40
23713;DHT22;12035;49.978;8.298;2023-02-04T18:15:23;11.50;57.30
23713;DHT22;12035;49.978;8.298;2023-02-04T18:20:22;11.40;57.40
23713;DHT22;12035;49.978;8.298;2023-02-04T18:25:20;11.20;57.40
23713;DHT22;12035;49.978;8.298;2023-02-04T18:30:21;11.20;57.40
23713;DHT22;12035;49.978;8.298;2023-02-04T18:35:42;11.10;57.50
23713;DHT22;12035;49.978;8.298;2023-02-04T18:40:41;11.10;57.50
23713;DHT22;12035;49.978;8.298;2023-02-04T18:45:40;11.00;57.50
23713;DHT22;12035;49.978;8.298;2023-02-04T18:50:37;10.90;57.60
23713;DHT22;12035;49.978;8.298;2023-02-04T18:55:36;10.80;57.60
23713;DHT22;12035;49.978;8.298;2023-02-04T19:00:34;10.70;57.70
23713;DHT22;12035;49.978;8.298;2023-02-04T19:05:35;10.70;57.90
23713;DHT22;12035;49.978;8.298;2023-02-04T19:10:37;10.60;58.10
23713;DHT22;12035;49.978;8.298;2023-02-04T19:15:37;10.60;58.40
23713;DHT22;12035;49.978;8.298;2023-02-04T19:20:36;10.60;58.20
23713;DHT22;12035;49.978;8.298;2023-02-04T19:25:44;10.70;58.50
23713;DHT22;12035;49.978;8.298;2023-02-04T19:30:45;10.70;58.30
23713;DHT22;12035;49.978;8.298;2023-02-04T19:35:44;10.70;58.30
23713;DHT22;12035;49.978;8.298;2023-02-04T19:40:42;10.70;58.30
23713;DHT22;12035;49.978;8.298;2023-02-04T19:45:39;10.70;58.30
23713;DHT22;12035;49.978;8.298;2023-02-04T19:50:37;10.60;58.40
23713;DHT22;12035;49.978;8.298;2023-02-04T19:55:41;10.60;58.60
23713;DHT22;12035;49.978;8.298;2023-02-04T20:00:45;10.60;58.50
23713;DHT22;12035;49.978;8.298;2023-02-04T20:06:00;10.60;58.50
23713;DHT22;12035;49.978;8.298;2023-02-04T20:22:41;10.60;58.70
23713;DHT22;12035;49.978;8.298;2023-02-04T20:27:41;10.60;58.70
23713;DHT22;12035;49.978;8.298;2023-02-04T20:32:40;10.60;58.90
23713;DHT22;12035;49.978;8.298;2023-02-04T20:37:40;10.50;58.70
23713;DHT22;12035;49.978;8.298;2023-02-04T20:42:45;10.50;58.70
23713;DHT22;12035;49.978;8.298;2023-02-04T20:47:43;10.40;58.40
23713;DHT22;12035;49.978;8.298;2023-02-04T20:53:04;10.30;58.70
23713;DHT22;12035;49.978;8.298;2023-02-04T20:58:17;10.20;58.90
23713;DHT22;12035;49.978;8.298;2023-02-04T21:03:21;10.10;59.00
23713;DHT22;12035;49.978;8.298;2023-02-04T21:08:39;10.00;59.10
23713;DHT22;12035;49.978;8.298;2023-02-04T21:13:39;9.90;59.10
23713;DHT22;12035;49.978;8.298;2023-02-04T21:18:36;9.90;59.10
23713;DHT22;12035;49.978;8.298;2023-02-04T21:23:34;9.80;59.20
23713;DHT22;12035;49.978;8.298;2023-02-04T21:28:32;9.80;59.20
23713;DHT22;12035;49.978;8.298;2023-02-04T21:33:30;9.70;59.30
23713;DHT22;12035;49.978;8.298;2023-02-04T21:38:27;9.60;59.40
23713;DHT22;12035;49.978;8.298;2023-02-04T21:43:24;9.60;59.50
23713;DHT22;12035;49.978;8.298;2023-02-04T21:48:21;9.50;59.60
23713;DHT22;12035;49.978;8.298;2023-02-04T21:53:20;9.50;59.60
23713;DHT22;12035;49.978;8.298;2023-02-04T21:58:17;9.40;59.50
23713;DHT22;12035;49.978;8.298;2023-02-04T22:03:15;9.40;59.70
23713;DHT22;12035;49.978;8.298;2023-02-04T22:08:12;9.30;59.80
23713;DHT22;12035;49.978;8.298;2023-02-04T22:13:10;9.40;60.00
23713;DHT22;12035;49.978;8.298;2023-02-04T22:18:07;9.30;60.00
23713;DHT22;12035;49.978;8.298;2023-02-04T22:23:05;9.40;60.20
23713;DHT22;12035;49.978;8.298;2023-02-04T22:28:02;9.40;60.20
23713;DHT22;12035;49.978;8.298;2023-02-04T22:33:00;9.50;60.40
23713;DHT22;12035;49.978;8.298;2023-02-04T22:37:58;9.50;60.10
23713;DHT22;12035;49.978;8.298;2023-02-04T22:42:56;9.50;60.00
23713;DHT22;12035;49.978;8.298;2023-02-04T22:47:53;9.50;60.00
23713;DHT22;12035;49.978;8.298;2023-02-04T22:52:51;9.50;60.20
23713;DHT22;12035;49.978;8.298;2023-02-04T22:57:48;9.50;60.00
23713;DHT22;12035;49.978;8.298;2023-02-04T23:02:45;9.50;59.80
23713;DHT22;12035;49.978;8.298;2023-02-04T23:07:44;9.40;59.80
23713;DHT22;12035;49.978;8.298;2023-02-04T23:12:42;9.30;59.80
23713;DHT22;12035;49.978;8.298;2023-02-04T23:17:39;9.30;60.00
23713;DHT22;12035;49.978;8.298;2023-02-04T23:22:36;9.40;60.20
23713;DHT22;12035;49.978;8.298;2023-02-04T23:27:33;9.40;60.20
23713;DHT22;12035;49.978;8.298;2023-02-04T23:32:32;9.40;60.20
23713;DHT22;12035;49.978;8.298;2023-02-04T23:37:29;9.40;60.00
23713;DHT22;12035;49.978;8.298;2023-02-04T23:42:28;9.30;59.90
23713;DHT22;12035;49.978;8.298;2023-02-04T23:47:25;9.20;59.90
23713;DHT22;12035;49.978;8.298;2023-02-04T23:52:24;9.20;60.00
23713;DHT22;12035;49.978;8.298;2023-02-04T23:57:21;9.10;60.20
